createdAt,value
2019-01-02T00:01:40.620Z,5.20
2019-01-02T00:04:09.607Z,5.20
2019-01-02T00:06:38.169Z,5.30
2019-01-02T00:09:07.296Z,5.20
2019-01-02T00:11:35.913Z,5.30
2019-01-02T00:14:04.589Z,5.30
2019-01-02T00:16:33.147Z,5.30
2019-01-02T00:19:01.783Z,5.40
2019-01-02T00:21:30.605Z,5.40
2019-01-02T00:23:59.188Z,5.50
2019-01-02T00:26:28.050Z,5.40
2019-01-02T00:28:56.641Z,5.50
2019-01-02T00:31:25.497Z,5.40
2019-01-02T00:33:54.053Z,5.50
2019-01-02T00:36:22.935Z,5.50
2019-01-02T00:38:51.500Z,5.40
2019-01-02T00:41:20.080Z,5.30
2019-01-02T00:43:48.637Z,5.40
2019-01-02T00:46:17.301Z,5.40
2019-01-02T00:48:45.857Z,5.40
2019-01-02T00:51:14.440Z,5.40
2019-01-02T00:53:42.993Z,5.40
2019-01-02T00:56:11.581Z,5.50
2019-01-02T00:58:40.142Z,5.50
2019-01-02T01:01:08.729Z,5.50
2019-01-02T01:03:37.304Z,5.50
2019-01-02T01:06:06.326Z,5.60
2019-01-02T01:08:34.887Z,5.70
2019-01-02T01:11:03.786Z,5.60
2019-01-02T01:13:32.339Z,5.60
2019-01-02T01:16:01.215Z,5.70
2019-01-02T01:18:29.777Z,5.70
2019-01-02T01:20:58.660Z,5.60
2019-01-02T01:23:27.222Z,5.50
2019-01-02T01:25:55.804Z,5.50
2019-01-02T01:28:24.556Z,5.40
2019-01-02T01:30:53.140Z,5.40
2019-01-02T01:33:21.991Z,5.30
2019-01-02T01:35:50.580Z,5.20
2019-01-02T01:38:19.137Z,5.20
2019-01-02T01:40:48.102Z,5.20
2019-01-02T01:43:16.660Z,5.00
2019-01-02T01:45:45.336Z,4.90
2019-01-02T01:48:13.890Z,4.80
2019-01-02T01:50:42.553Z,4.80
2019-01-02T01:53:11.309Z,4.80
2019-01-02T01:55:39.909Z,4.80
2019-01-02T01:58:08.524Z,4.70
2019-01-02T02:00:37.181Z,4.60
2019-01-02T02:03:05.809Z,4.50
2019-01-02T02:05:34.674Z,4.50
2019-01-02T02:08:03.256Z,4.50
2019-01-02T02:10:31.840Z,4.50
2019-01-02T02:13:00.792Z,4.50
2019-01-02T02:15:29.356Z,4.50
2019-01-02T02:17:58.241Z,4.50
2019-01-02T02:20:27.056Z,4.40
2019-01-02T02:22:55.644Z,4.40
2019-01-02T02:25:24.597Z,4.30
2019-01-02T02:27:53.185Z,4.30
2019-01-02T02:30:22.141Z,4.30
2019-01-02T02:32:50.737Z,4.30
2019-01-02T02:35:19.659Z,4.30
2019-01-02T02:37:48.251Z,4.30
2019-01-02T02:40:16.812Z,4.30
2019-01-02T02:42:45.400Z,4.20
2019-01-02T02:45:14.333Z,4.30
2019-01-02T02:47:43.190Z,4.30
2019-01-02T02:50:13.987Z,4.30
2019-01-02T02:52:42.576Z,4.20
2019-01-02T02:55:13.682Z,4.20
2019-01-02T02:57:42.271Z,4.20
2019-01-02T03:00:16.116Z,4.30
2019-01-02T03:02:44.764Z,4.20
2019-01-02T03:05:15.056Z,4.20
2019-01-02T03:07:44.007Z,4.10
2019-01-02T03:10:14.905Z,4.10
2019-01-02T03:12:43.783Z,4.10
2019-01-02T03:15:12.809Z,4.10
2019-01-02T03:17:41.464Z,4.10
2019-01-02T03:20:16.348Z,4.00
2019-01-02T03:22:45.106Z,4.00
2019-01-02T03:25:14.605Z,4.00
2019-01-02T03:27:43.460Z,4.00
2019-01-02T03:30:14.686Z,3.90
2019-01-02T03:32:43.640Z,3.90
2019-01-02T03:35:12.598Z,3.90
2019-01-02T03:37:41.155Z,3.90
2019-01-02T03:40:11.683Z,3.90
2019-01-02T03:42:40.329Z,3.90
2019-01-02T03:45:11.828Z,3.90
2019-01-02T03:47:40.524Z,3.80
2019-01-02T03:50:12.250Z,3.80
2019-01-02T03:52:40.881Z,3.80
2019-01-02T03:55:10.300Z,3.80
2019-01-02T03:57:38.930Z,3.80
2019-01-02T04:00:13.561Z,3.80
2019-01-02T04:02:42.190Z,3.80
2019-01-02T04:05:16.236Z,3.70
2019-01-02T04:07:48.037Z,3.80
2019-01-02T04:10:16.765Z,3.80
2019-01-02T04:12:45.308Z,3.70
2019-01-02T04:15:13.965Z,3.60
2019-01-02T04:17:42.521Z,3.60
2019-01-02T04:20:11.108Z,3.70
2019-01-02T04:22:39.665Z,3.70
2019-01-02T04:25:08.989Z,3.70
2019-01-02T04:27:37.544Z,3.70
2019-01-02T04:30:14.079Z,3.90
2019-01-02T04:32:42.632Z,3.90
2019-01-02T04:35:11.189Z,3.80
2019-01-02T04:37:39.839Z,3.90
2019-01-02T04:40:10.845Z,3.80
2019-01-02T04:42:39.437Z,3.70
2019-01-02T04:45:10.131Z,3.60
2019-01-02T04:47:38.780Z,3.60
2019-01-02T04:50:09.982Z,3.50
2019-01-02T04:52:38.564Z,3.70
2019-01-02T04:55:07.199Z,3.70
2019-01-02T04:57:35.860Z,3.80
2019-01-02T05:00:07.481Z,3.90
2019-01-02T05:02:36.079Z,3.90
2019-01-02T05:05:05.468Z,4.00
2019-01-02T05:07:34.058Z,4.00
2019-01-02T05:10:02.605Z,4.00
2019-01-02T05:12:31.193Z,4.10
2019-01-02T05:14:59.747Z,4.00
2019-01-02T05:17:28.338Z,4.00
2019-01-02T05:19:56.885Z,4.20
2019-01-02T05:22:25.474Z,4.10
2019-01-02T05:25:01.374Z,4.10
2019-01-02T05:27:29.658Z,4.20
2019-01-02T05:29:58.216Z,4.30
2019-01-02T05:32:26.813Z,4.30
2019-01-02T05:34:55.373Z,4.30
2019-01-02T05:37:23.968Z,4.30
2019-01-02T05:39:52.524Z,4.30
2019-01-02T05:42:21.110Z,4.40
2019-01-02T05:44:49.660Z,4.30
2019-01-02T05:47:18.255Z,4.20
2019-01-02T05:49:46.813Z,4.20
2019-01-02T05:52:15.401Z,4.30
2019-01-02T05:54:43.966Z,4.30
2019-01-02T05:57:12.554Z,4.40
2019-01-02T05:59:41.116Z,4.20
2019-01-02T06:02:09.710Z,4.20
2019-01-02T06:04:38.260Z,4.20
2019-01-02T06:07:06.849Z,4.20
2019-01-02T06:09:35.410Z,4.20
2019-01-02T06:12:03.997Z,4.30
2019-01-02T06:14:32.560Z,4.20
2019-01-02T06:17:01.155Z,4.30
2019-01-02T06:19:29.707Z,4.30
2019-01-02T06:21:58.276Z,4.30
2019-01-02T06:24:26.858Z,4.30
2019-01-02T06:26:55.422Z,4.40
2019-01-02T06:29:24.004Z,4.50
2019-01-02T06:31:52.560Z,4.50
2019-01-02T06:34:21.148Z,4.50
2019-01-02T06:36:49.711Z,4.60
2019-01-02T06:39:18.301Z,4.50
2019-01-02T06:41:46.859Z,4.50
2019-01-02T06:44:15.440Z,4.50
2019-01-02T06:46:43.997Z,4.50
2019-01-02T06:49:12.585Z,4.60
2019-01-02T06:51:41.139Z,4.60
2019-01-02T06:54:09.733Z,4.60
2019-01-02T06:56:38.284Z,4.50
2019-01-02T06:59:06.864Z,4.60
2019-01-02T07:01:35.421Z,4.60
2019-01-02T07:04:04.081Z,4.60
2019-01-02T07:06:32.632Z,4.60
2019-01-02T07:09:01.220Z,4.80
2019-01-02T07:11:29.782Z,4.70
2019-01-02T07:13:58.373Z,4.80
2019-01-02T07:16:26.929Z,4.70
2019-01-02T07:18:55.512Z,4.60
2019-01-02T07:21:24.068Z,4.60
2019-01-02T07:23:52.732Z,4.50
2019-01-02T07:26:21.291Z,4.60
2019-01-02T07:28:49.849Z,4.70
2019-01-02T07:31:18.436Z,4.80
2019-01-02T07:33:50.061Z,4.60
2019-01-02T07:36:42.272Z,4.60
2019-01-02T07:39:19.671Z,4.60
2019-01-02T07:41:57.212Z,4.60
2019-01-02T07:44:37.429Z,4.50
2019-01-02T07:47:28.182Z,4.50
2019-01-02T07:50:19.251Z,4.70
2019-01-02T07:53:11.501Z,4.70
2019-01-02T07:55:59.547Z,4.70
2019-01-02T07:58:55.101Z,4.70
2019-01-02T08:01:35.570Z,4.70
2019-01-02T08:04:33.492Z,4.60
2019-01-02T08:07:21.429Z,4.60
2019-01-02T08:10:01.758Z,4.70
2019-01-02T08:12:33.384Z,4.70
2019-01-02T08:15:21.026Z,4.70
2019-01-02T08:17:55.252Z,4.70
2019-01-02T08:20:32.788Z,4.70
2019-01-02T08:23:25.424Z,4.80
2019-01-02T08:26:19.088Z,4.70
2019-01-02T08:29:02.103Z,4.80
2019-01-02T08:31:42.319Z,4.80
2019-01-02T08:34:28.909Z,4.90
2019-01-02T08:37:21.452Z,4.70
2019-01-02T08:40:04.732Z,4.70
2019-01-02T08:42:45.429Z,4.70
2019-01-02T08:45:40.833Z,4.60
2019-01-02T08:48:15.435Z,4.70
2019-01-02T08:51:13.884Z,4.80
2019-01-02T08:53:56.875Z,4.90
2019-01-02T08:56:56.548Z,5.00
2019-01-02T08:59:39.862Z,5.00
2019-01-02T09:02:27.897Z,5.10
2019-01-02T09:05:20.581Z,5.10
2019-01-02T09:08:03.793Z,5.20
2019-01-02T09:10:59.333Z,5.10
2019-01-02T09:13:49.970Z,5.10
2019-01-02T09:16:40.640Z,5.20
2019-01-02T09:19:24.216Z,5.30
2019-01-02T09:21:55.886Z,5.40
2019-01-02T09:24:33.172Z,5.40
2019-01-02T09:27:33.069Z,5.40
2019-01-02T09:30:04.699Z,5.40
2019-01-02T09:32:48.089Z,5.30
2019-01-02T09:35:47.870Z,5.30
2019-01-02T09:38:34.442Z,5.40
2019-01-02T09:41:11.847Z,5.30
2019-01-02T09:43:43.520Z,5.40
2019-01-02T09:46:15.142Z,5.60
2019-01-02T09:48:52.503Z,5.60
2019-01-02T09:51:45.129Z,5.70
2019-01-02T09:54:33.127Z,5.60
2019-01-02T09:57:20.791Z,5.70
2019-01-02T09:59:58.124Z,5.80
2019-01-02T10:02:41.828Z,5.80
2019-01-02T10:05:28.076Z,5.90
2019-01-02T10:08:05.316Z,6.00
2019-01-02T10:10:45.338Z,6.10
2019-01-02T10:13:25.598Z,6.00
2019-01-02T10:16:22.582Z,5.90
2019-01-02T10:19:03.230Z,6.00
2019-01-02T10:21:43.920Z,6.00
2019-01-02T10:24:18.476Z,6.00
2019-01-02T10:27:01.741Z,6.00
2019-01-02T10:29:49.601Z,6.00
2019-01-02T10:32:33.221Z,6.00
2019-01-02T10:35:21.172Z,5.90
2019-01-02T10:37:52.832Z,5.70
2019-01-02T10:40:30.167Z,5.80
2019-01-02T10:43:01.837Z,5.80
2019-01-02T10:45:38.839Z,5.90
2019-01-02T10:48:27.766Z,5.80
2019-01-02T10:51:07.959Z,5.80
2019-01-02T10:53:45.407Z,5.80
2019-01-02T10:56:19.632Z,5.80
2019-01-02T10:59:18.128Z,5.60
2019-01-02T11:02:08.856Z,5.50
2019-01-02T11:04:46.023Z,5.30
2019-01-02T11:07:29.212Z,5.40
2019-01-02T11:10:03.670Z,5.50
2019-01-02T11:12:44.293Z,5.70
2019-01-02T11:15:50.280Z,5.80
2019-01-02T11:18:38.149Z,5.80
2019-01-02T11:21:35.164Z,5.80
2019-01-02T11:24:33.651Z,5.90
2019-01-02T11:27:39.822Z,6.00
2019-01-02T11:30:42.994Z,6.10
2019-01-02T11:33:29.255Z,6.20
2019-01-02T11:36:01.755Z,6.20
2019-01-02T11:38:36.382Z,6.10
2019-01-02T11:41:10.928Z,6.00
2019-01-02T11:44:07.833Z,6.10
2019-01-02T11:46:36.390Z,6.10
2019-01-02T11:49:05.048Z,6.30
2019-01-02T11:51:33.608Z,6.30
2019-01-02T11:54:02.213Z,6.40
2019-01-02T11:56:30.836Z,6.40
2019-01-02T11:58:59.429Z,6.50
2019-01-02T12:01:27.985Z,6.50
2019-01-02T12:03:56.568Z,6.50
2019-01-02T12:06:25.128Z,6.60
2019-01-02T12:08:53.718Z,6.60
2019-01-02T12:11:22.339Z,6.60
2019-01-02T12:13:50.932Z,6.60
2019-01-02T12:16:19.498Z,6.70
2019-01-02T12:18:48.049Z,6.80
2019-01-02T12:21:16.643Z,6.80
2019-01-02T12:23:45.220Z,6.80
2019-01-02T12:26:13.814Z,6.70
2019-01-02T12:28:42.370Z,6.50
2019-01-02T12:31:11.024Z,6.50
2019-01-02T12:33:39.584Z,6.60
2019-01-02T12:36:08.213Z,6.50
2019-01-02T12:38:36.739Z,6.50
2019-01-02T12:41:05.319Z,6.40
2019-01-02T12:43:33.880Z,6.30
2019-01-02T12:46:02.533Z,6.30
2019-01-02T12:48:31.094Z,6.20
2019-01-02T12:50:59.680Z,6.20
2019-01-02T12:53:28.244Z,6.20
2019-01-02T12:55:56.904Z,6.20
2019-01-02T12:58:25.467Z,6.20
2019-01-02T13:00:56.760Z,6.20
2019-01-02T13:03:28.405Z,6.20
2019-01-02T13:06:18.179Z,6.10
2019-01-02T13:09:01.353Z,6.10
2019-01-02T13:11:53.646Z,6.10
2019-01-02T13:14:30.800Z,6.10
2019-01-02T13:17:20.078Z,6.10
2019-01-02T13:20:03.031Z,6.00
2019-01-02T13:22:52.449Z,5.80
2019-01-02T13:25:24.076Z,5.80
2019-01-02T13:27:55.744Z,5.80
2019-01-02T13:30:39.374Z,5.50
2019-01-02T13:33:13.520Z,5.40
2019-01-02T13:36:03.092Z,5.50
2019-01-02T13:38:34.716Z,5.40
2019-01-02T13:41:09.122Z,5.30
2019-01-02T13:43:43.452Z,5.10
2019-01-02T13:46:20.884Z,5.10
2019-01-02T13:49:27.881Z,5.20
2019-01-02T13:51:56.481Z,5.20
2019-01-02T13:54:25.036Z,5.20
2019-01-02T13:56:53.619Z,5.20
2019-01-02T13:59:22.179Z,5.20
2019-01-02T14:01:50.770Z,5.20
2019-01-02T14:04:19.318Z,5.20
2019-01-02T14:06:47.896Z,5.20
2019-01-02T14:09:16.520Z,5.20
2019-01-02T14:11:45.111Z,5.20
2019-01-02T14:14:13.678Z,5.20
2019-01-02T14:16:42.260Z,5.30
2019-01-02T14:19:10.820Z,5.30
2019-01-02T14:21:39.412Z,5.30
2019-01-02T14:24:07.973Z,5.30
2019-01-02T14:26:36.536Z,5.30
2019-01-02T14:29:05.130Z,5.30
2019-01-02T14:31:38.648Z,5.20
2019-01-02T14:34:03.992Z,5.20
2019-01-02T14:36:32.542Z,5.10
2019-01-02T14:39:01.125Z,5.10
2019-01-02T14:41:29.681Z,5.10
2019-01-02T14:43:58.277Z,5.10
2019-01-02T14:46:26.841Z,5.20
2019-01-02T14:48:55.416Z,5.20
2019-01-02T14:51:23.982Z,5.20
2019-01-02T14:53:52.567Z,5.30
2019-01-02T14:56:21.123Z,5.40
2019-01-02T14:58:49.708Z,5.40
2019-01-02T15:01:18.261Z,5.40
2019-01-02T15:03:46.850Z,5.40
2019-01-02T15:06:15.400Z,5.40
2019-01-02T15:08:43.984Z,5.30
2019-01-02T15:11:12.540Z,5.30
2019-01-02T15:13:41.132Z,5.30
2019-01-02T15:16:09.706Z,5.30
2019-01-02T15:18:38.284Z,5.40
2019-01-02T15:21:06.845Z,5.30
2019-01-02T15:23:35.447Z,5.30
2019-01-02T15:26:04.068Z,5.20
2019-01-02T15:28:32.652Z,5.20
2019-01-02T15:31:01.209Z,5.20
2019-01-02T15:33:29.792Z,5.20
2019-01-02T15:35:58.346Z,5.10
2019-01-02T15:38:26.943Z,5.00
2019-01-02T15:40:55.501Z,4.90
2019-01-02T15:43:24.091Z,4.90
2019-01-02T15:45:52.647Z,4.90
2019-01-02T15:48:21.206Z,4.80
2019-01-02T15:50:49.865Z,4.70
2019-01-02T15:53:18.428Z,4.80
2019-01-02T15:55:47.018Z,4.80
2019-01-02T15:58:15.572Z,4.80
2019-01-02T16:00:44.224Z,4.70
2019-01-02T16:03:12.783Z,4.60
2019-01-02T16:05:41.376Z,4.50
2019-01-02T16:08:09.937Z,4.50
2019-01-02T16:10:38.521Z,4.40
2019-01-02T16:13:07.084Z,4.30
2019-01-02T16:15:35.664Z,4.30
2019-01-02T16:18:04.220Z,4.20
2019-01-02T16:20:32.814Z,4.20
2019-01-02T16:23:01.436Z,4.10
2019-01-02T16:25:30.025Z,4.10
2019-01-02T16:27:58.584Z,4.00
2019-01-02T16:30:27.173Z,3.90
2019-01-02T16:32:55.731Z,3.90
2019-01-02T16:35:24.316Z,3.90
2019-01-02T16:37:52.871Z,3.90
2019-01-02T16:40:21.459Z,3.90
2019-01-02T16:42:50.013Z,3.80
2019-01-02T16:45:18.596Z,3.80
2019-01-02T16:47:47.153Z,3.70
2019-01-02T16:50:15.740Z,3.80
2019-01-02T16:52:44.292Z,3.80
2019-01-02T16:55:12.881Z,3.80
2019-01-02T16:57:41.438Z,3.70
2019-01-02T17:00:12.737Z,3.70
2019-01-02T17:02:41.294Z,3.70
2019-01-02T17:05:09.927Z,3.60
2019-01-02T17:07:38.509Z,3.60
2019-01-02T17:10:10.116Z,3.60
2019-01-02T17:12:38.697Z,3.60
2019-01-02T17:15:08.093Z,3.60
2019-01-02T17:17:36.681Z,3.60
2019-01-02T17:20:07.774Z,3.50
2019-01-02T17:22:36.372Z,3.30
2019-01-02T17:25:06.878Z,3.40
2019-01-02T17:27:35.507Z,3.30
2019-01-02T17:30:05.303Z,3.10
2019-01-02T17:32:33.892Z,3.10
2019-01-02T17:35:02.524Z,3.00
2019-01-02T17:37:31.114Z,3.00
2019-01-02T17:39:59.696Z,3.10
2019-01-02T17:42:28.294Z,3.00
2019-01-02T17:44:56.840Z,3.10
2019-01-02T17:47:25.434Z,3.10
2019-01-02T17:49:53.993Z,3.00
2019-01-02T17:52:22.581Z,2.80
2019-01-02T17:54:51.150Z,2.70
2019-01-02T17:57:19.818Z,2.60
2019-01-02T17:59:48.367Z,2.60
2019-01-02T18:02:16.954Z,2.70
2019-01-02T18:04:45.517Z,2.50
2019-01-02T18:07:14.113Z,2.50
2019-01-02T18:09:42.676Z,2.40
2019-01-02T18:12:11.285Z,2.50
2019-01-02T18:14:39.840Z,2.50
2019-01-02T18:17:08.433Z,2.60
2019-01-02T18:19:37.076Z,2.60
2019-01-02T18:22:05.742Z,2.60
2019-01-02T18:24:34.309Z,2.60
2019-01-02T18:27:02.910Z,2.50
2019-01-02T18:29:31.474Z,2.50
2019-01-02T18:32:00.066Z,2.40
2019-01-02T18:34:28.658Z,2.40
2019-01-02T18:36:57.229Z,2.40
2019-01-02T18:39:25.826Z,2.30
2019-01-02T18:41:54.402Z,2.20
2019-01-02T18:44:22.992Z,2.30
2019-01-02T18:46:51.559Z,2.20
2019-01-02T18:49:20.157Z,2.20
2019-01-02T18:51:48.712Z,2.10
2019-01-02T18:54:17.305Z,2.10
2019-01-02T18:56:45.870Z,2.10
2019-01-02T18:59:14.456Z,2.10
2019-01-02T19:01:43.021Z,1.90
2019-01-02T19:04:11.657Z,1.90
2019-01-02T19:06:40.226Z,1.80
2019-01-02T19:09:08.974Z,1.80
2019-01-02T19:11:38.753Z,1.80
2019-01-02T19:14:07.329Z,1.80
2019-01-02T19:16:35.964Z,1.80
2019-01-02T19:19:04.577Z,1.80
2019-01-02T19:21:33.144Z,1.70
2019-01-02T19:24:01.736Z,1.70
2019-01-02T19:26:30.301Z,1.70
2019-01-02T19:28:58.912Z,1.70
2019-01-02T19:31:27.480Z,1.70
2019-01-02T19:33:56.069Z,1.60
2019-01-02T19:36:24.645Z,1.60
2019-01-02T19:38:53.484Z,1.60
2019-01-02T19:41:22.045Z,1.40
2019-01-02T19:43:50.969Z,1.30
2019-01-02T19:46:19.551Z,1.20
2019-01-02T19:48:48.136Z,1.10
2019-01-02T19:51:16.704Z,1.30
2019-01-02T19:53:45.304Z,1.30
2019-01-02T19:56:13.860Z,1.30
2019-01-02T19:58:42.428Z,1.30
2019-01-02T20:01:11.027Z,1.30
2019-01-02T20:03:39.576Z,1.20
2019-01-02T20:06:08.166Z,1.10
2019-01-02T20:08:36.724Z,1.10
2019-01-02T20:11:05.314Z,1.10
2019-01-02T20:13:33.867Z,1.10
2019-01-02T20:16:02.459Z,1.10
2019-01-02T20:18:31.021Z,1.10
2019-01-02T20:20:59.672Z,0.90
2019-01-02T20:23:28.228Z,0.80
2019-01-02T20:25:56.813Z,0.90
2019-01-02T20:28:25.377Z,0.90
2019-01-02T20:30:54.139Z,0.90
2019-01-02T20:33:22.696Z,0.90
2019-01-02T20:35:51.276Z,0.90
2019-01-02T20:38:19.836Z,0.90
2019-01-02T20:40:48.452Z,0.80
2019-01-02T20:43:16.976Z,0.90
2019-01-02T20:45:45.577Z,0.90
2019-01-02T20:48:14.154Z,0.80
2019-01-02T20:50:42.713Z,0.80
2019-01-02T20:53:11.279Z,0.90
2019-01-02T20:55:39.860Z,0.90
2019-01-02T20:58:08.420Z,0.90
2019-01-02T21:00:37.010Z,0.90
2019-01-02T21:03:05.567Z,0.80
2019-01-02T21:05:34.163Z,0.80
2019-01-02T21:08:02.718Z,0.80
2019-01-02T21:10:31.305Z,0.80
2019-01-02T21:12:59.928Z,0.70
2019-01-02T21:15:28.564Z,0.70
2019-01-02T21:17:57.102Z,0.60
2019-01-02T21:20:25.793Z,0.60
2019-01-02T21:22:54.351Z,0.50
2019-01-02T21:25:22.940Z,0.60
2019-01-02T21:27:51.508Z,0.60
2019-01-02T21:30:20.060Z,0.60
2019-01-02T21:32:48.724Z,0.50
2019-01-02T21:35:17.275Z,0.60
2019-01-02T21:37:45.860Z,0.60
2019-01-02T21:40:14.408Z,0.60
2019-01-02T21:42:43.004Z,0.60
2019-01-02T21:45:11.637Z,0.60
2019-01-02T21:47:40.225Z,0.60
2019-01-02T21:50:09.217Z,0.50
2019-01-02T21:52:37.804Z,0.60
2019-01-02T21:55:07.306Z,0.50
2019-01-02T21:57:35.888Z,0.50
2019-01-02T22:00:08.359Z,0.50
2019-01-02T22:02:40.322Z,0.50
2019-01-02T22:05:07.216Z,0.30
2019-01-02T22:07:35.798Z,0.30
2019-01-02T22:10:06.587Z,0.40
2019-01-02T22:12:35.235Z,0.30
2019-01-02T22:15:04.224Z,0.30
2019-01-02T22:17:32.824Z,0.20
2019-01-02T22:20:01.384Z,0.10
2019-01-02T22:22:29.974Z,0.20
2019-01-02T22:24:58.536Z,0.10
2019-01-02T22:27:27.128Z,0.20
2019-01-02T22:29:55.756Z,0.20
2019-01-02T22:32:24.349Z,0.20
2019-01-02T22:34:52.905Z,0.30
2019-01-02T22:37:21.485Z,0.30
2019-01-02T22:39:50.044Z,0.30
2019-01-02T22:42:18.637Z,0.30
2019-01-02T22:44:47.190Z,0.30
2019-01-02T22:47:15.785Z,0.30
2019-01-02T22:49:44.337Z,0.30
2019-01-02T22:52:12.912Z,0.30
2019-01-02T22:54:41.482Z,0.20
2019-01-02T22:57:10.020Z,0.20
2019-01-02T22:59:38.613Z,0.20
2019-01-02T23:02:08.778Z,0.10
2019-01-02T23:04:54.777Z,0.10
2019-01-02T23:07:40.824Z,0.00
2019-01-02T23:10:11.017Z,0.10
2019-01-02T23:12:57.464Z,0.00
2019-01-02T23:15:30.615Z,0.00
2019-01-02T23:18:06.804Z,0.00
2019-01-02T23:20:37.009Z,-0.10
2019-01-02T23:23:16.183Z,0.00
2019-01-02T23:25:46.380Z,-0.10
2019-01-02T23:28:16.610Z,-0.10
2019-01-02T23:30:49.755Z,-0.20
2019-01-02T23:33:38.045Z,-0.20
2019-01-02T23:36:10.796Z,-0.40
2019-01-02T23:38:56.984Z,-0.50
2019-01-02T23:41:43.169Z,-0.40
2019-01-02T23:44:19.093Z,-0.60
2019-01-02T23:46:49.289Z,-0.60
2019-01-02T23:49:35.941Z,-0.50
2019-01-02T23:52:06.201Z,-0.40
2019-01-02T23:54:42.423Z,-0.30
2019-01-02T23:57:12.688Z,-0.30
2019-01-02T23:59:48.980Z,-0.30
